sensor_id;sensor_type;location;lat;lon;timestamp;P1;durP1;ratioP1;P2;durP2;ratioP2
56141;SDS011;42018;48.588;10.836;2023-02-15T00:02:32;26.38;;;12.48;;
56141;SDS011;42018;48.588;10.836;2023-02-15T00:05:18;22.00;;;12.40;;
56141;SDS011;42018;48.588;10.836;2023-02-15T00:08:03;23.40;;;12.38;;
56141;SDS011;42018;48.588;10.836;2023-02-15T00:10:48;52.78;;;14.63;;
56141;SDS011;42018;48.588;10.836;2023-02-15T00:13:34;22.30;;;12.80;;
56141;SDS011;42018;48.588;10.836;2023-02-15T00:16:21;75.28;;;14.73;;
56141;SDS011;42018;48.588;10.836;2023-02-15T00:19:06;26.17;;;12.50;;
56141;SDS011;42018;48.588;10.836;2023-02-15T00:21:52;19.98;;;11.70;;
56141;SDS011;42018;48.588;10.836;2023-02-15T00:24:38;39.28;;;14.30;;
56141;SDS011;42018;48.588;10.836;2023-02-15T00:27:23;29.83;;;13.90;;
56141;SDS011;42018;48.588;10.836;2023-02-15T00:30:08;38.65;;;14.32;;
56141;SDS011;42018;48.588;10.836;2023-02-15T00:32:54;32.00;;;12.85;;
56141;SDS011;42018;48.588;10.836;2023-02-15T00:35:39;19.58;;;12.45;;
56141;SDS011;42018;48.588;10.836;2023-02-15T00:38:28;41.95;;;13.02;;
56141;SDS011;42018;48.588;10.836;2023-02-15T00:41:14;22.50;;;12.90;;
56141;SDS011;42018;48.588;10.836;2023-02-15T00:44:00;57.83;;;11.85;;
56141;SDS011;42018;48.588;10.836;2023-02-15T00:46:45;19.27;;;11.60;;
56141;SDS011;42018;48.588;10.836;2023-02-15T00:49:31;84.97;;;14.02;;
56141;SDS011;42018;48.588;10.836;2023-02-15T00:52:16;65.38;;;12.13;;
56141;SDS011;42018;48.588;10.836;2023-02-15T00:55:01;29.30;;;11.82;;
56141;SDS011;42018;48.588;10.836;2023-02-15T00:57:47;77.95;;;12.27;;
56141;SDS011;42018;48.588;10.836;2023-02-15T01:00:32;21.00;;;10.40;;
56141;SDS011;42018;48.588;10.836;2023-02-15T01:03:19;18.38;;;10.38;;
56141;SDS011;42018;48.588;10.836;2023-02-15T01:06:05;22.05;;;11.25;;
56141;SDS011;42018;48.588;10.836;2023-02-15T01:08:50;17.30;;;10.10;;
56141;SDS011;42018;48.588;10.836;2023-02-15T01:11:35;16.40;;;10.48;;
56141;SDS011;42018;48.588;10.836;2023-02-15T01:14:21;18.20;;;10.88;;
56141;SDS011;42018;48.588;10.836;2023-02-15T01:17:06;27.95;;;11.02;;
56141;SDS011;42018;48.588;10.836;2023-02-15T01:19:52;15.45;;;10.00;;
56141;SDS011;42018;48.588;10.836;2023-02-15T01:22:37;36.78;;;11.20;;
56141;SDS011;42018;48.588;10.836;2023-02-15T01:25:23;21.02;;;11.82;;
56141;SDS011;42018;48.588;10.836;2023-02-15T01:28:09;43.50;;;10.40;;
56141;SDS011;42018;48.588;10.836;2023-02-15T01:30:54;24.17;;;9.88;;
56141;SDS011;42018;48.588;10.836;2023-02-15T01:33:40;21.17;;;9.55;;
56141;SDS011;42018;48.588;10.836;2023-02-15T01:36:25;56.47;;;12.63;;
56141;SDS011;42018;48.588;10.836;2023-02-15T01:39:11;18.92;;;10.85;;
56141;SDS011;42018;48.588;10.836;2023-02-15T01:41:56;29.10;;;11.15;;
56141;SDS011;42018;48.588;10.836;2023-02-15T01:44:52;16.02;;;10.13;;
56141;SDS011;42018;48.588;10.836;2023-02-15T01:47:44;19.05;;;10.70;;
56141;SDS011;42018;48.588;10.836;2023-02-15T01:50:40;57.17;;;11.35;;
56141;SDS011;42018;48.588;10.836;2023-02-15T01:53:37;18.88;;;9.65;;
56141;SDS011;42018;48.588;10.836;2023-02-15T01:56:45;14.25;;;8.75;;
56141;SDS011;42018;48.588;10.836;2023-02-15T01:59:32;17.70;;;9.15;;
56141;SDS011;42018;48.588;10.836;2023-02-15T02:02:21;19.48;;;10.27;;
56141;SDS011;42018;48.588;10.836;2023-02-15T02:05:09;45.83;;;10.80;;
56141;SDS011;42018;48.588;10.836;2023-02-15T02:07:54;65.07;;;11.52;;
56141;SDS011;42018;48.588;10.836;2023-02-15T02:10:42;15.60;;;10.25;;
56141;SDS011;42018;48.588;10.836;2023-02-15T02:13:27;28.42;;;11.85;;
56141;SDS011;42018;48.588;10.836;2023-02-15T02:25:43;17.83;;;9.73;;
56141;SDS011;42018;48.588;10.836;2023-02-15T02:35:38;14.38;;;9.15;;
56141;SDS011;42018;48.588;10.836;2023-02-15T02:42:20;23.00;;;11.00;;
56141;SDS011;42018;48.588;10.836;2023-02-15T02:45:20;17.63;;;9.30;;
56141;SDS011;42018;48.588;10.836;2023-02-15T02:48:15;16.85;;;8.90;;
56141;SDS011;42018;48.588;10.836;2023-02-15T02:51:04;13.90;;;9.15;;
56141;SDS011;42018;48.588;10.836;2023-02-15T02:53:51;16.77;;;9.02;;
56141;SDS011;42018;48.588;10.836;2023-02-15T02:56:42;13.27;;;8.25;;
56141;SDS011;42018;48.588;10.836;2023-02-15T02:59:39;25.60;;;9.23;;
56141;SDS011;42018;48.588;10.836;2023-02-15T03:02:30;23.83;;;9.88;;
56141;SDS011;42018;48.588;10.836;2023-02-15T03:05:21;14.38;;;8.60;;
56141;SDS011;42018;48.588;10.836;2023-02-15T03:08:12;21.13;;;9.50;;
56141;SDS011;42018;48.588;10.836;2023-02-15T03:11:06;15.27;;;9.15;;
56141;SDS011;42018;48.588;10.836;2023-02-15T03:13:52;20.50;;;10.25;;
56141;SDS011;42018;48.588;10.836;2023-02-15T03:16:38;18.95;;;10.57;;
56141;SDS011;42018;48.588;10.836;2023-02-15T03:19:27;24.55;;;10.07;;
56141;SDS011;42018;48.588;10.836;2023-02-15T03:22:33;21.23;;;9.80;;
56141;SDS011;42018;48.588;10.836;2023-02-15T03:25:22;14.85;;;9.38;;
56141;SDS011;42018;48.588;10.836;2023-02-15T03:31:04;24.10;;;9.80;;
56141;SDS011;42018;48.588;10.836;2023-02-15T03:33:54;29.60;;;9.77;;
56141;SDS011;42018;48.588;10.836;2023-02-15T03:39:35;28.95;;;10.07;;
56141;SDS011;42018;48.588;10.836;2023-02-15T03:42:26;15.82;;;9.50;;
56141;SDS011;42018;48.588;10.836;2023-02-15T03:45:17;17.55;;;10.65;;
56141;SDS011;42018;48.588;10.836;2023-02-15T03:48:10;28.08;;;10.45;;
56141;SDS011;42018;48.588;10.836;2023-02-15T03:50:57;16.98;;;9.77;;
56141;SDS011;42018;48.588;10.836;2023-02-15T03:54:10;17.30;;;8.88;;
56141;SDS011;42018;48.588;10.836;2023-02-15T03:57:27;26.20;;;10.50;;
56141;SDS011;42018;48.588;10.836;2023-02-15T04:00:32;14.23;;;9.35;;
56141;SDS011;42018;48.588;10.836;2023-02-15T04:03:40;24.63;;;10.15;;
56141;SDS011;42018;48.588;10.836;2023-02-15T04:06:30;18.25;;;9.55;;
56141;SDS011;42018;48.588;10.836;2023-02-15T04:09:15;21.15;;;9.90;;
56141;SDS011;42018;48.588;10.836;2023-02-15T04:12:19;42.22;;;11.02;;
56141;SDS011;42018;48.588;10.836;2023-02-15T04:15:05;16.35;;;9.70;;
56141;SDS011;42018;48.588;10.836;2023-02-15T04:18:09;26.63;;;10.10;;
56141;SDS011;42018;48.588;10.836;2023-02-15T04:20:55;17.60;;;11.27;;
56141;SDS011;42018;48.588;10.836;2023-02-15T04:23:59;22.73;;;10.73;;
56141;SDS011;42018;48.588;10.836;2023-02-15T04:27:03;17.52;;;10.38;;
56141;SDS011;42018;48.588;10.836;2023-02-15T04:29:49;23.27;;;10.07;;
56141;SDS011;42018;48.588;10.836;2023-02-15T04:32:35;18.05;;;10.13;;
56141;SDS011;42018;48.588;10.836;2023-02-15T04:35:20;17.00;;;9.93;;
56141;SDS011;42018;48.588;10.836;2023-02-15T04:38:07;32.42;;;11.20;;
56141;SDS011;42018;48.588;10.836;2023-02-15T04:40:52;41.92;;;11.25;;
56141;SDS011;42018;48.588;10.836;2023-02-15T04:43:38;18.05;;;10.63;;
56141;SDS011;42018;48.588;10.836;2023-02-15T04:46:23;13.85;;;8.57;;
56141;SDS011;42018;48.588;10.836;2023-02-15T04:49:08;16.67;;;10.18;;
56141;SDS011;42018;48.588;10.836;2023-02-15T04:51:54;16.15;;;10.20;;
56141;SDS011;42018;48.588;10.836;2023-02-15T04:54:39;17.17;;;10.73;;
56141;SDS011;42018;48.588;10.836;2023-02-15T04:57:25;16.23;;;9.95;;
56141;SDS011;42018;48.588;10.836;2023-02-15T05:00:10;20.25;;;10.23;;
56141;SDS011;42018;48.588;10.836;2023-02-15T05:02:56;16.33;;;10.20;;
56141;SDS011;42018;48.588;10.836;2023-02-15T05:05:42;26.45;;;11.00;;
56141;SDS011;42018;48.588;10.836;2023-02-15T05:08:27;17.02;;;10.63;;
56141;SDS011;42018;48.588;10.836;2023-02-15T05:11:13;19.25;;;10.95;;
56141;SDS011;42018;48.588;10.836;2023-02-15T05:13:58;22.73;;;12.13;;
56141;SDS011;42018;48.588;10.836;2023-02-15T05:16:43;21.08;;;11.32;;
56141;SDS011;42018;48.588;10.836;2023-02-15T05:19:29;19.00;;;11.95;;
56141;SDS011;42018;48.588;10.836;2023-02-15T05:22:14;20.20;;;10.82;;
56141;SDS011;42018;48.588;10.836;2023-02-15T05:24:59;30.90;;;12.88;;
56141;SDS011;42018;48.588;10.836;2023-02-15T05:28:03;27.27;;;13.32;;
56141;SDS011;42018;48.588;10.836;2023-02-15T05:33:54;27.15;;;13.98;;
56141;SDS011;42018;48.588;10.836;2023-02-15T05:36:40;38.30;;;14.95;;
56141;SDS011;42018;48.588;10.836;2023-02-15T05:39:25;26.70;;;13.93;;
56141;SDS011;42018;48.588;10.836;2023-02-15T05:42:10;33.83;;;14.20;;
56141;SDS011;42018;48.588;10.836;2023-02-15T05:44:56;28.33;;;13.00;;
56141;SDS011;42018;48.588;10.836;2023-02-15T05:47:42;27.73;;;13.32;;
56141;SDS011;42018;48.588;10.836;2023-02-15T05:50:27;26.27;;;13.95;;
56141;SDS011;42018;48.588;10.836;2023-02-15T05:53:12;21.10;;;12.40;;
56141;SDS011;42018;48.588;10.836;2023-02-15T05:55:58;22.55;;;13.27;;
56141;SDS011;42018;48.588;10.836;2023-02-15T05:58:44;21.92;;;12.90;;
56141;SDS011;42018;48.588;10.836;2023-02-15T06:01:30;25.70;;;14.32;;
56141;SDS011;42018;48.588;10.836;2023-02-15T06:04:15;28.67;;;16.75;;
56141;SDS011;42018;48.588;10.836;2023-02-15T06:07:00;31.58;;;15.90;;
56141;SDS011;42018;48.588;10.836;2023-02-15T06:09:46;33.28;;;17.83;;
56141;SDS011;42018;48.588;10.836;2023-02-15T06:12:31;28.73;;;15.25;;
56141;SDS011;42018;48.588;10.836;2023-02-15T06:15:17;29.67;;;15.57;;
56141;SDS011;42018;48.588;10.836;2023-02-15T06:18:02;27.45;;;15.65;;
56141;SDS011;42018;48.588;10.836;2023-02-15T06:20:48;17.48;;;11.10;;
56141;SDS011;42018;48.588;10.836;2023-02-15T06:23:33;20.65;;;12.80;;
56141;SDS011;42018;48.588;10.836;2023-02-15T06:26:19;29.00;;;16.55;;
56141;SDS011;42018;48.588;10.836;2023-02-15T06:29:04;33.58;;;18.25;;
56141;SDS011;42018;48.588;10.836;2023-02-15T06:31:50;29.90;;;17.77;;
56141;SDS011;42018;48.588;10.836;2023-02-15T06:34:35;24.35;;;14.63;;
56141;SDS011;42018;48.588;10.836;2023-02-15T06:37:21;21.98;;;12.65;;
56141;SDS011;42018;48.588;10.836;2023-02-15T06:40:06;17.88;;;11.52;;
56141;SDS011;42018;48.588;10.836;2023-02-15T06:42:53;22.52;;;12.75;;
56141;SDS011;42018;48.588;10.836;2023-02-15T06:45:38;27.13;;;15.80;;
56141;SDS011;42018;48.588;10.836;2023-02-15T06:48:23;21.75;;;13.27;;
56141;SDS011;42018;48.588;10.836;2023-02-15T06:51:09;28.08;;;15.90;;
56141;SDS011;42018;48.588;10.836;2023-02-15T06:53:54;19.95;;;12.50;;
56141;SDS011;42018;48.588;10.836;2023-02-15T06:56:39;20.45;;;11.50;;
56141;SDS011;42018;48.588;10.836;2023-02-15T06:59:25;20.70;;;11.23;;
56141;SDS011;42018;48.588;10.836;2023-02-15T07:02:11;20.13;;;11.82;;
56141;SDS011;42018;48.588;10.836;2023-02-15T07:04:57;26.30;;;12.20;;
56141;SDS011;42018;48.588;10.836;2023-02-15T07:07:42;19.65;;;12.85;;
56141;SDS011;42018;48.588;10.836;2023-02-15T07:10:28;21.77;;;13.02;;
56141;SDS011;42018;48.588;10.836;2023-02-15T07:13:13;24.85;;;13.77;;
56141;SDS011;42018;48.588;10.836;2023-02-15T07:15:58;19.88;;;11.88;;
56141;SDS011;42018;48.588;10.836;2023-02-15T07:18:44;22.90;;;11.70;;
56141;SDS011;42018;48.588;10.836;2023-02-15T07:21:29;23.50;;;12.15;;
56141;SDS011;42018;48.588;10.836;2023-02-15T07:24:15;26.45;;;14.48;;
56141;SDS011;42018;48.588;10.836;2023-02-15T07:27:00;25.27;;;13.57;;
56141;SDS011;42018;48.588;10.836;2023-02-15T07:29:46;30.25;;;13.73;;
56141;SDS011;42018;48.588;10.836;2023-02-15T07:32:32;22.08;;;12.82;;
56141;SDS011;42018;48.588;10.836;2023-02-15T07:35:17;25.20;;;13.00;;
56141;SDS011;42018;48.588;10.836;2023-02-15T07:38:03;21.90;;;12.52;;
56141;SDS011;42018;48.588;10.836;2023-02-15T07:40:48;20.45;;;12.32;;
56141;SDS011;42018;48.588;10.836;2023-02-15T07:43:34;20.98;;;12.30;;
56141;SDS011;42018;48.588;10.836;2023-02-15T07:46:21;23.88;;;13.23;;
56141;SDS011;42018;48.588;10.836;2023-02-15T07:49:07;16.80;;;10.38;;
56141;SDS011;42018;48.588;10.836;2023-02-15T07:51:53;19.33;;;11.40;;
56141;SDS011;42018;48.588;10.836;2023-02-15T07:54:38;16.75;;;10.90;;
56141;SDS011;42018;48.588;10.836;2023-02-15T07:57:23;22.10;;;12.90;;
56141;SDS011;42018;48.588;10.836;2023-02-15T08:00:09;21.08;;;12.77;;
56141;SDS011;42018;48.588;10.836;2023-02-15T08:02:56;24.15;;;13.15;;
56141;SDS011;42018;48.588;10.836;2023-02-15T08:06:00;23.52;;;13.77;;
56141;SDS011;42018;48.588;10.836;2023-02-15T08:08:45;28.42;;;14.90;;
56141;SDS011;42018;48.588;10.836;2023-02-15T08:11:31;26.63;;;14.90;;
56141;SDS011;42018;48.588;10.836;2023-02-15T08:14:21;23.10;;;14.30;;
56141;SDS011;42018;48.588;10.836;2023-02-15T08:17:09;30.02;;;14.13;;
56141;SDS011;42018;48.588;10.836;2023-02-15T08:19:55;28.67;;;16.38;;
56141;SDS011;42018;48.588;10.836;2023-02-15T08:22:40;27.00;;;15.13;;
56141;SDS011;42018;48.588;10.836;2023-02-15T08:25:25;27.77;;;15.60;;
56141;SDS011;42018;48.588;10.836;2023-02-15T08:28:11;26.15;;;14.50;;
56141;SDS011;42018;48.588;10.836;2023-02-15T08:31:03;24.25;;;14.88;;
56141;SDS011;42018;48.588;10.836;2023-02-15T08:33:50;29.00;;;15.38;;
56141;SDS011;42018;48.588;10.836;2023-02-15T08:36:37;25.38;;;14.27;;
56141;SDS011;42018;48.588;10.836;2023-02-15T08:39:23;24.10;;;14.27;;
56141;SDS011;42018;48.588;10.836;2023-02-15T08:42:08;23.85;;;14.48;;
56141;SDS011;42018;48.588;10.836;2023-02-15T08:44:54;28.65;;;14.98;;
56141;SDS011;42018;48.588;10.836;2023-02-15T08:47:39;38.33;;;20.42;;
56141;SDS011;42018;48.588;10.836;2023-02-15T08:50:24;33.97;;;19.10;;
56141;SDS011;42018;48.588;10.836;2023-02-15T08:53:10;35.47;;;19.85;;
56141;SDS011;42018;48.588;10.836;2023-02-15T08:55:55;38.80;;;19.80;;
56141;SDS011;42018;48.588;10.836;2023-02-15T08:58:42;32.88;;;18.45;;
56141;SDS011;42018;48.588;10.836;2023-02-15T09:01:28;40.35;;;20.98;;
56141;SDS011;42018;48.588;10.836;2023-02-15T09:04:15;41.65;;;22.23;;
56141;SDS011;42018;48.588;10.836;2023-02-15T09:07:01;39.13;;;21.10;;
56141;SDS011;42018;48.588;10.836;2023-02-15T09:09:49;41.90;;;20.75;;
56141;SDS011;42018;48.588;10.836;2023-02-15T09:12:34;32.42;;;18.90;;
56141;SDS011;42018;48.588;10.836;2023-02-15T09:15:20;33.33;;;19.70;;
56141;SDS011;42018;48.588;10.836;2023-02-15T09:18:05;37.38;;;20.63;;
56141;SDS011;42018;48.588;10.836;2023-02-15T09:20:51;36.15;;;20.50;;
56141;SDS011;42018;48.588;10.836;2023-02-15T09:23:36;43.55;;;23.05;;
56141;SDS011;42018;48.588;10.836;2023-02-15T09:26:22;30.75;;;17.95;;
56141;SDS011;42018;48.588;10.836;2023-02-15T09:29:10;29.25;;;17.00;;
56141;SDS011;42018;48.588;10.836;2023-02-15T09:31:56;36.13;;;19.77;;
56141;SDS011;42018;48.588;10.836;2023-02-15T09:34:41;40.38;;;22.30;;
56141;SDS011;42018;48.588;10.836;2023-02-15T09:37:26;44.00;;;22.17;;
56141;SDS011;42018;48.588;10.836;2023-02-15T09:40:12;42.80;;;23.20;;
56141;SDS011;42018;48.588;10.836;2023-02-15T09:43:10;36.90;;;19.15;;
56141;SDS011;42018;48.588;10.836;2023-02-15T09:46:11;29.45;;;16.10;;
56141;SDS011;42018;48.588;10.836;2023-02-15T09:49:45;34.97;;;18.58;;
56141;SDS011;42018;48.588;10.836;2023-02-15T09:52:46;45.20;;;24.75;;
56141;SDS011;42018;48.588;10.836;2023-02-15T09:56:15;47.45;;;25.00;;
56141;SDS011;42018;48.588;10.836;2023-02-15T09:59:14;36.75;;;21.00;;
56141;SDS011;42018;48.588;10.836;2023-02-15T10:17:29;38.13;;;21.42;;
56141;SDS011;42018;48.588;10.836;2023-02-15T10:26:48;36.60;;;20.08;;
56141;SDS011;42018;48.588;10.836;2023-02-15T10:32:24;40.45;;;22.42;;
56141;SDS011;42018;48.588;10.836;2023-02-15T10:38:35;54.92;;;28.05;;
56141;SDS011;42018;48.588;10.836;2023-02-15T10:47:48;44.08;;;25.65;;
56141;SDS011;42018;48.588;10.836;2023-02-15T10:50:56;46.47;;;24.05;;
56141;SDS011;42018;48.588;10.836;2023-02-15T10:53:52;38.28;;;21.92;;
56141;SDS011;42018;48.588;10.836;2023-02-15T11:00:20;62.55;;;34.80;;
56141;SDS011;42018;48.588;10.836;2023-02-15T11:06:25;38.55;;;22.40;;
56141;SDS011;42018;48.588;10.836;2023-02-15T11:09:12;42.90;;;26.08;;
56141;SDS011;42018;48.588;10.836;2023-02-15T11:12:01;44.25;;;24.65;;
56141;SDS011;42018;48.588;10.836;2023-02-15T11:14:51;42.28;;;27.23;;
56141;SDS011;42018;48.588;10.836;2023-02-15T11:17:43;40.25;;;25.40;;
56141;SDS011;42018;48.588;10.836;2023-02-15T11:20:37;39.22;;;24.73;;
56141;SDS011;42018;48.588;10.836;2023-02-15T11:23:29;46.25;;;27.02;;
56141;SDS011;42018;48.588;10.836;2023-02-15T11:29:37;48.97;;;28.77;;
56141;SDS011;42018;48.588;10.836;2023-02-15T11:35:02;41.20;;;25.15;;
56141;SDS011;42018;48.588;10.836;2023-02-15T11:50:43;32.60;;;20.30;;
56141;SDS011;42018;48.588;10.836;2023-02-15T11:53:33;29.08;;;18.10;;
56141;SDS011;42018;48.588;10.836;2023-02-15T11:56:23;31.17;;;21.02;;
56141;SDS011;42018;48.588;10.836;2023-02-15T11:59:12;34.53;;;22.05;;
56141;SDS011;42018;48.588;10.836;2023-02-15T12:02:17;42.17;;;26.00;;
56141;SDS011;42018;48.588;10.836;2023-02-15T12:05:09;39.45;;;24.98;;
56141;SDS011;42018;48.588;10.836;2023-02-15T12:08:02;34.42;;;21.83;;
56141;SDS011;42018;48.588;10.836;2023-02-15T12:11:09;31.42;;;19.85;;
56141;SDS011;42018;48.588;10.836;2023-02-15T12:13:58;40.83;;;24.98;;
56141;SDS011;42018;48.588;10.836;2023-02-15T12:16:51;34.25;;;21.95;;
56141;SDS011;42018;48.588;10.836;2023-02-15T12:19:40;31.85;;;20.95;;
56141;SDS011;42018;48.588;10.836;2023-02-15T12:22:33;31.23;;;21.55;;
56141;SDS011;42018;48.588;10.836;2023-02-15T12:28:26;32.80;;;20.73;;
56141;SDS011;42018;48.588;10.836;2023-02-15T12:31:32;40.10;;;26.63;;
56141;SDS011;42018;48.588;10.836;2023-02-15T12:37:15;30.75;;;19.20;;
56141;SDS011;42018;48.588;10.836;2023-02-15T12:40:18;31.35;;;19.73;;
56141;SDS011;42018;48.588;10.836;2023-02-15T12:43:24;33.13;;;22.05;;
56141;SDS011;42018;48.588;10.836;2023-02-15T12:46:22;30.38;;;20.48;;
56141;SDS011;42018;48.588;10.836;2023-02-15T12:52:05;33.05;;;21.73;;
56141;SDS011;42018;48.588;10.836;2023-02-15T12:55:18;35.40;;;23.10;;
56141;SDS011;42018;48.588;10.836;2023-02-15T12:58:06;35.05;;;23.17;;
56141;SDS011;42018;48.588;10.836;2023-02-15T13:01:19;32.58;;;21.83;;
56141;SDS011;42018;48.588;10.836;2023-02-15T13:04:21;33.85;;;22.42;;
56141;SDS011;42018;48.588;10.836;2023-02-15T13:07:10;32.28;;;21.55;;
56141;SDS011;42018;48.588;10.836;2023-02-15T13:09:58;32.53;;;20.42;;
56141;SDS011;42018;48.588;10.836;2023-02-15T13:12:45;33.25;;;21.73;;
56141;SDS011;42018;48.588;10.836;2023-02-15T13:15:34;33.45;;;23.02;;
56141;SDS011;42018;48.588;10.836;2023-02-15T13:18:30;31.00;;;21.45;;
56141;SDS011;42018;48.588;10.836;2023-02-15T13:21:20;35.63;;;23.20;;
56141;SDS011;42018;48.588;10.836;2023-02-15T13:24:53;28.58;;;19.23;;
56141;SDS011;42018;48.588;10.836;2023-02-15T13:27:48;30.83;;;22.92;;
56141;SDS011;42018;48.588;10.836;2023-02-15T13:30:40;32.55;;;20.95;;
56141;SDS011;42018;48.588;10.836;2023-02-15T13:33:33;28.83;;;20.58;;
56141;SDS011;42018;48.588;10.836;2023-02-15T13:36:23;28.40;;;20.08;;
56141;SDS011;42018;48.588;10.836;2023-02-15T13:42:26;28.92;;;18.83;;
56141;SDS011;42018;48.588;10.836;2023-02-15T13:45:25;26.20;;;19.27;;
56141;SDS011;42018;48.588;10.836;2023-02-15T13:51:29;25.42;;;17.70;;
56141;SDS011;42018;48.588;10.836;2023-02-15T13:57:41;27.05;;;19.77;;
56141;SDS011;42018;48.588;10.836;2023-02-15T14:07:03;29.73;;;20.55;;
56141;SDS011;42018;48.588;10.836;2023-02-15T14:12:46;26.33;;;18.85;;
56141;SDS011;42018;48.588;10.836;2023-02-15T14:20:27;25.10;;;19.50;;
56141;SDS011;42018;48.588;10.836;2023-02-15T14:22:49;29.23;;;19.50;;
56141;SDS011;42018;48.588;10.836;2023-02-15T14:25:48;27.73;;;21.40;;
56141;SDS011;42018;48.588;10.836;2023-02-15T14:28:45;25.90;;;18.92;;
56141;SDS011;42018;48.588;10.836;2023-02-15T14:31:37;25.75;;;19.42;;
56141;SDS011;42018;48.588;10.836;2023-02-15T14:37:42;26.35;;;20.10;;
56141;SDS011;42018;48.588;10.836;2023-02-15T14:40:54;26.17;;;20.25;;
56141;SDS011;42018;48.588;10.836;2023-02-15T14:44:00;25.52;;;18.27;;
56141;SDS011;42018;48.588;10.836;2023-02-15T14:46:50;26.40;;;20.48;;
56141;SDS011;42018;48.588;10.836;2023-02-15T14:49:45;25.40;;;18.80;;
56141;SDS011;42018;48.588;10.836;2023-02-15T14:52:30;26.42;;;18.67;;
56141;SDS011;42018;48.588;10.836;2023-02-15T14:55:16;23.52;;;17.90;;
56141;SDS011;42018;48.588;10.836;2023-02-15T14:58:20;23.23;;;18.00;;
56141;SDS011;42018;48.588;10.836;2023-02-15T15:01:06;24.65;;;20.08;;
56141;SDS011;42018;48.588;10.836;2023-02-15T15:03:54;25.65;;;19.23;;
56141;SDS011;42018;48.588;10.836;2023-02-15T15:06:43;23.20;;;18.48;;
56141;SDS011;42018;48.588;10.836;2023-02-15T15:09:29;25.05;;;18.42;;
56141;SDS011;42018;48.588;10.836;2023-02-15T15:15:06;24.67;;;18.20;;
56141;SDS011;42018;48.588;10.836;2023-02-15T15:18:03;24.63;;;17.50;;
56141;SDS011;42018;48.588;10.836;2023-02-15T15:20:50;27.10;;;20.90;;
56141;SDS011;42018;48.588;10.836;2023-02-15T15:26:25;24.80;;;18.33;;
56141;SDS011;42018;48.588;10.836;2023-02-15T15:29:13;21.88;;;16.38;;
56141;SDS011;42018;48.588;10.836;2023-02-15T15:31:58;23.48;;;17.13;;
56141;SDS011;42018;48.588;10.836;2023-02-15T15:37:47;23.23;;;15.80;;
56141;SDS011;42018;48.588;10.836;2023-02-15T15:40:55;22.70;;;16.13;;
56141;SDS011;42018;48.588;10.836;2023-02-15T15:47:01;21.30;;;15.77;;
56141;SDS011;42018;48.588;10.836;2023-02-15T15:50:14;20.65;;;16.08;;
56141;SDS011;42018;48.588;10.836;2023-02-15T15:53:02;23.30;;;17.40;;
56141;SDS011;42018;48.588;10.836;2023-02-15T15:55:48;22.73;;;16.92;;
56141;SDS011;42018;48.588;10.836;2023-02-15T15:58:37;25.10;;;17.67;;
56141;SDS011;42018;48.588;10.836;2023-02-15T16:01:30;24.50;;;17.38;;
56141;SDS011;42018;48.588;10.836;2023-02-15T16:04:23;25.38;;;17.73;;
56141;SDS011;42018;48.588;10.836;2023-02-15T16:10:07;27.95;;;18.73;;
56141;SDS011;42018;48.588;10.836;2023-02-15T16:13:11;30.55;;;19.63;;
56141;SDS011;42018;48.588;10.836;2023-02-15T16:15:58;29.25;;;19.48;;
56141;SDS011;42018;48.588;10.836;2023-02-15T16:18:44;29.63;;;20.20;;
56141;SDS011;42018;48.588;10.836;2023-02-15T16:21:34;34.17;;;22.83;;
56141;SDS011;42018;48.588;10.836;2023-02-15T16:24:24;30.00;;;21.85;;
56141;SDS011;42018;48.588;10.836;2023-02-15T16:30:22;28.10;;;19.35;;
56141;SDS011;42018;48.588;10.836;2023-02-15T16:36:00;29.00;;;19.65;;
56141;SDS011;42018;48.588;10.836;2023-02-15T16:41:33;26.70;;;18.15;;
56141;SDS011;42018;48.588;10.836;2023-02-15T16:44:19;28.13;;;19.20;;
56141;SDS011;42018;48.588;10.836;2023-02-15T16:47:07;30.15;;;20.63;;
56141;SDS011;42018;48.588;10.836;2023-02-15T16:50:01;29.02;;;20.65;;
56141;SDS011;42018;48.588;10.836;2023-02-15T16:52:49;31.70;;;20.63;;
56141;SDS011;42018;48.588;10.836;2023-02-15T16:55:38;30.30;;;21.35;;
56141;SDS011;42018;48.588;10.836;2023-02-15T17:01:19;38.45;;;24.80;;
56141;SDS011;42018;48.588;10.836;2023-02-15T17:07:16;44.20;;;27.02;;
56141;SDS011;42018;48.588;10.836;2023-02-15T17:10:16;38.20;;;24.13;;
56141;SDS011;42018;48.588;10.836;2023-02-15T17:13:14;32.92;;;21.70;;
56141;SDS011;42018;48.588;10.836;2023-02-15T17:18:46;45.08;;;25.45;;
56141;SDS011;42018;48.588;10.836;2023-02-15T17:21:33;36.70;;;22.40;;
56141;SDS011;42018;48.588;10.836;2023-02-15T17:27:25;58.50;;;21.25;;
56141;SDS011;42018;48.588;10.836;2023-02-15T17:30:14;34.85;;;18.92;;
56141;SDS011;42018;48.588;10.836;2023-02-15T17:33:17;35.10;;;21.17;;
56141;SDS011;42018;48.588;10.836;2023-02-15T17:36:17;68.97;;;21.52;;
56141;SDS011;42018;48.588;10.836;2023-02-15T17:39:19;30.58;;;18.55;;
56141;SDS011;42018;48.588;10.836;2023-02-15T17:42:07;27.85;;;17.98;;
56141;SDS011;42018;48.588;10.836;2023-02-15T17:44:52;90.45;;;23.80;;
56141;SDS011;42018;48.588;10.836;2023-02-15T17:47:38;35.72;;;20.67;;
56141;SDS011;42018;48.588;10.836;2023-02-15T17:50:25;34.55;;;18.90;;
56141;SDS011;42018;48.588;10.836;2023-02-15T17:53:12;23.95;;;16.77;;
56141;SDS011;42018;48.588;10.836;2023-02-15T17:56:03;58.92;;;20.00;;
56141;SDS011;42018;48.588;10.836;2023-02-15T17:58:54;58.78;;;20.40;;
56141;SDS011;42018;48.588;10.836;2023-02-15T18:01:44;31.50;;;18.10;;
56141;SDS011;42018;48.588;10.836;2023-02-15T18:07:54;36.97;;;17.58;;
56141;SDS011;42018;48.588;10.836;2023-02-15T18:10:58;25.85;;;17.13;;
56141;SDS011;42018;48.588;10.836;2023-02-15T18:14:07;25.13;;;15.77;;
56141;SDS011;42018;48.588;10.836;2023-02-15T18:16:54;21.50;;;15.70;;
56141;SDS011;42018;48.588;10.836;2023-02-15T18:19:40;23.38;;;15.70;;
56141;SDS011;42018;48.588;10.836;2023-02-15T18:22:28;22.17;;;15.50;;
56141;SDS011;42018;48.588;10.836;2023-02-15T18:25:14;22.20;;;16.05;;
56141;SDS011;42018;48.588;10.836;2023-02-15T18:28:01;21.13;;;15.43;;
56141;SDS011;42018;48.588;10.836;2023-02-15T18:30:46;108.72;;;18.75;;
56141;SDS011;42018;48.588;10.836;2023-02-15T18:33:33;27.00;;;16.92;;
56141;SDS011;42018;48.588;10.836;2023-02-15T18:36:26;72.97;;;18.83;;
56141;SDS011;42018;48.588;10.836;2023-02-15T18:42:28;70.57;;;17.35;;
56141;SDS011;42018;48.588;10.836;2023-02-15T18:45:22;21.63;;;14.68;;
56141;SDS011;42018;48.588;10.836;2023-02-15T18:48:12;26.35;;;15.57;;
56141;SDS011;42018;48.588;10.836;2023-02-15T18:50:59;119.57;;;19.67;;
56141;SDS011;42018;48.588;10.836;2023-02-15T18:53:45;30.08;;;16.83;;
56141;SDS011;42018;48.588;10.836;2023-02-15T18:56:31;23.40;;;15.43;;
56141;SDS011;42018;48.588;10.836;2023-02-15T18:59:17;20.52;;;13.27;;
56141;SDS011;42018;48.588;10.836;2023-02-15T19:02:05;23.10;;;15.20;;
56141;SDS011;42018;48.588;10.836;2023-02-15T19:04:57;29.77;;;15.07;;
56141;SDS011;42018;48.588;10.836;2023-02-15T19:07:43;37.08;;;17.95;;
56141;SDS011;42018;48.588;10.836;2023-02-15T19:10:32;120.00;;;20.10;;